Time;durP1;ratioP1;P1;durP2;ratioP2;P2;SDS_P1;SDS_P2;PMS_P1;PMS_P2;Temp;Humidity;BMP_temperature;BMP_pressure;BME280_temperature;BME280_humidity;BME280_pressure;Samples;Min_cycle;Max_cycle;Signal;HPM_P1;HPM_P2
2023/08/28 00:01:46;;;;;;;0.30;0.30;;;13.00;99.90;;;;;;4999663;28;20145;-75
2023/08/28 00:04:12;;;;;;;0.35;0.35;;;13.00;99.90;;;;;;4986751;28;20487;-75
2023/08/28 00:06:37;;;;;;;0.40;0.40;;;12.90;99.90;;;;;;5002925;28;20137;-74
2023/08/28 00:09:04;;;;;;;0.30;0.30;;;12.90;99.90;;;;;;5004703;28;20411;-75
2023/08/28 00:11:29;;;;;;;0.52;0.52;;;12.90;99.90;;;;;;5002993;28;20045;-75
2023/08/28 00:13:55;;;;;;;0.30;0.30;;;12.80;99.90;;;;;;4990544;28;20057;-75
2023/08/28 00:16:20;;;;;;;0.45;0.45;;;12.90;99.90;;;;;;5005742;28;20046;-75
2023/08/28 00:18:46;;;;;;;0.50;0.50;;;12.80;99.90;;;;;;4995093;28;20400;-75
2023/08/28 00:21:12;;;;;;;0.32;0.32;;;12.80;99.90;;;;;;4996962;28;20096;-75
2023/08/28 00:23:37;;;;;;;0.30;0.30;;;12.80;99.90;;;;;;4988460;28;20045;-75
2023/08/28 00:26:03;;;;;;;0.40;0.40;;;12.80;99.90;;;;;;4996345;28;20133;-75
2023/08/28 00:28:29;;;;;;;0.30;0.30;;;12.80;99.90;;;;;;4987604;28;20077;-75
2023/08/28 00:30:54;;;;;;;0.45;0.45;;;12.80;99.90;;;;;;4988507;28;20054;-75
2023/08/28 00:33:20;;;;;;;0.30;0.30;;;12.80;99.90;;;;;;5008463;28;20046;-75
2023/08/28 00:35:45;;;;;;;0.30;0.30;;;12.80;99.90;;;;;;5010929;28;20220;-75
2023/08/28 00:38:11;;;;;;;0.40;0.40;;;12.80;99.90;;;;;;4986729;28;20042;-75
2023/08/28 00:40:40;;;;;;;0.50;0.50;;;12.80;99.90;;;;;;5007223;28;20050;-75
2023/08/28 00:43:08;;;;;;;0.40;0.35;;;12.80;99.90;;;;;;4987240;28;20074;-75
2023/08/28 00:45:37;;;;;;;0.20;0.20;;;12.70;99.90;;;;;;5003732;28;20050;-75
2023/08/28 00:48:03;;;;;;;0.35;0.35;;;12.70;99.90;;;;;;4989657;28;20116;-75
2023/08/28 00:50:29;;;;;;;0.35;0.35;;;12.70;99.90;;;;;;4987971;28;20633;-75
2023/08/28 00:52:55;;;;;;;0.38;0.38;;;12.70;99.90;;;;;;4991639;28;20077;-76
2023/08/28 00:55:21;;;;;;;0.50;0.50;;;12.70;99.90;;;;;;4992149;28;20046;-75
2023/08/28 00:57:47;;;;;;;0.30;0.30;;;12.60;99.90;;;;;;5007805;28;20058;-75
2023/08/28 01:00:13;;;;;;;0.40;0.40;;;12.60;99.90;;;;;;4993867;28;20776;-75
2023/08/28 01:02:40;;;;;;;0.40;0.40;;;12.60;99.90;;;;;;4990502;28;20042;-76
2023/08/28 01:05:06;;;;;;;0.30;0.30;;;12.60;99.90;;;;;;5001105;28;20050;-76
2023/08/28 01:07:49;;;;;;;0.30;0.30;;;12.50;99.90;;;;;;4988534;28;20081;-75
2023/08/28 01:10:26;;;;;;;0.30;0.30;;;12.50;99.90;;;;;;4985369;28;20048;-76
2023/08/28 01:13:07;;;;;;;0.40;0.40;;;12.50;99.90;;;;;;4969496;28;20074;-76
2023/08/28 01:15:35;;;;;;;0.47;0.47;;;12.50;99.90;;;;;;5008427;28;20050;-76
2023/08/28 01:18:04;;;;;;;0.40;0.40;;;12.50;99.90;;;;;;4990899;28;20113;-75
2023/08/28 01:20:31;;;;;;;0.45;0.45;;;12.40;99.90;;;;;;4986573;28;20054;-75
2023/08/28 01:22:57;;;;;;;0.47;0.47;;;12.40;99.90;;;;;;4992812;28;20077;-75
2023/08/28 01:25:24;;;;;;;0.30;0.30;;;12.40;99.90;;;;;;4992312;28;20126;-75
2023/08/28 01:27:51;;;;;;;0.30;0.30;;;12.40;99.90;;;;;;5005625;28;20057;-75
2023/08/28 01:30:17;;;;;;;0.30;0.30;;;12.30;99.90;;;;;;5006585;28;20137;-75
2023/08/28 01:32:44;;;;;;;0.30;0.30;;;12.30;99.90;;;;;;5008018;28;20120;-75
2023/08/28 01:35:20;;;;;;;0.30;0.30;;;12.30;99.90;;;;;;4987004;28;20095;-75
2023/08/28 01:38:00;;;;;;;0.30;0.30;;;12.20;99.90;;;;;;4991866;28;20133;-74
2023/08/28 01:40:32;;;;;;;0.40;0.40;;;12.20;99.90;;;;;;5008586;28;20428;-75
2023/08/28 01:42:59;;;;;;;0.30;0.30;;;12.20;99.90;;;;;;5006906;28;20045;-75
2023/08/28 01:45:37;;;;;;;0.28;0.28;;;12.10;99.90;;;;;;4990105;28;20074;-75
2023/08/28 01:48:03;;;;;;;0.40;0.40;;;12.10;99.90;;;;;;5008171;28;20487;-75
2023/08/28 01:50:29;;;;;;;0.30;0.30;;;12.10;99.90;;;;;;5006669;28;20038;-75
2023/08/28 01:52:55;;;;;;;0.30;0.30;;;12.00;99.90;;;;;;4991276;28;20399;-75
2023/08/28 01:55:45;;;;;;;0.77;0.50;;;12.00;99.90;;;;;;4986721;28;20116;-76
2023/08/28 01:58:14;;;;;;;0.43;0.43;;;12.00;99.90;;;;;;4983778;28;20057;-75
2023/08/28 02:00:40;;;;;;;0.40;0.40;;;12.00;99.90;;;;;;4970706;28;20054;-75
2023/08/28 02:03:06;;;;;;;0.40;0.40;;;11.90;99.90;;;;;;4955138;28;20049;-76
2023/08/28 02:05:32;;;;;;;0.30;0.30;;;11.90;99.90;;;;;;4969805;28;20069;-76
2023/08/28 02:07:58;;;;;;;0.35;0.35;;;11.90;99.90;;;;;;4970125;28;20047;-77
2023/08/28 02:10:24;;;;;;;0.52;0.52;;;12.00;99.90;;;;;;4969899;28;20042;-76
2023/08/28 02:12:50;;;;;;;0.38;0.38;;;12.00;99.90;;;;;;4964572;28;20093;-76
2023/08/28 02:15:15;;;;;;;0.70;0.70;;;11.90;99.90;;;;;;4968984;28;20068;-76
2023/08/28 02:17:41;;;;;;;0.40;0.40;;;12.00;99.90;;;;;;4979752;28;20050;-77
2023/08/28 02:20:11;;;;;;;0.30;0.30;;;11.90;99.90;;;;;;4965336;28;20043;-76
2023/08/28 02:22:37;;;;;;;0.40;0.40;;;11.90;99.90;;;;;;4963676;28;20101;-76
2023/08/28 02:25:05;;;;;;;0.30;0.30;;;11.90;99.90;;;;;;4970547;28;20085;-76
2023/08/28 02:27:31;;;;;;;0.45;0.45;;;11.90;99.90;;;;;;4974920;28;20177;-76
2023/08/28 02:29:57;;;;;;;0.57;0.57;;;11.90;99.90;;;;;;4966751;28;20158;-76
2023/08/28 02:32:23;;;;;;;0.95;0.88;;;11.90;99.90;;;;;;4967705;28;20636;-76
2023/08/28 02:34:49;;;;;;;0.40;0.40;;;11.90;99.90;;;;;;4982243;28;20069;-76
2023/08/28 02:37:15;;;;;;;0.47;0.47;;;11.90;99.90;;;;;;4979700;28;20407;-76
2023/08/28 02:39:41;;;;;;;0.40;0.40;;;11.90;99.90;;;;;;4978927;28;20049;-76
2023/08/28 02:42:08;;;;;;;0.65;0.65;;;11.90;99.90;;;;;;4975751;28;20133;-76
2023/08/28 02:44:33;;;;;;;0.88;0.88;;;11.90;99.90;;;;;;4967381;28;20078;-76
2023/08/28 02:46:59;;;;;;;0.70;0.70;;;11.80;99.90;;;;;;4959843;28;20047;-76
2023/08/28 02:49:24;;;;;;;0.95;0.60;;;11.80;99.90;;;;;;4966661;28;20074;-76
2023/08/28 02:51:50;;;;;;;0.40;0.40;;;11.80;99.90;;;;;;4974756;28;20049;-76
2023/08/28 02:54:16;;;;;;;0.30;0.30;;;11.80;99.90;;;;;;4984117;28;20051;-76
2023/08/28 02:56:41;;;;;;;0.50;0.50;;;11.80;99.90;;;;;;4969452;28;20129;-76
2023/08/28 02:59:07;;;;;;;0.32;0.32;;;11.80;99.90;;;;;;4965661;28;20050;-76
2023/08/28 03:01:35;;;;;;;0.30;0.30;;;11.80;99.90;;;;;;4961623;28;20051;-76
2023/08/28 03:04:04;;;;;;;;;;;11.70;99.90;;;;;;4978333;28;20665;-76
2023/08/28 03:06:33;;;;;;;0.40;0.40;;;11.70;99.90;;;;;;4971061;28;20024;-76
2023/08/28 03:08:59;;;;;;;0.60;0.60;;;11.70;99.90;;;;;;4984064;28;20126;-76
2023/08/28 03:11:24;;;;;;;0.40;0.40;;;11.70;99.90;;;;;;4975888;28;20134;-76
2023/08/28 03:13:50;;;;;;;0.47;0.47;;;11.70;99.90;;;;;;4968906;28;20163;-76
2023/08/28 03:16:16;;;;;;;0.50;0.50;;;11.70;99.90;;;;;;4981743;28;20054;-76
2023/08/28 03:18:41;;;;;;;0.47;0.47;;;11.60;99.90;;;;;;4967492;28;20097;-76
2023/08/28 03:21:07;;;;;;;0.40;0.40;;;11.60;99.90;;;;;;4981310;28;20130;-76
2023/08/28 03:23:33;;;;;;;0.35;0.35;;;11.60;99.90;;;;;;4949953;28;20105;-75
2023/08/28 03:25:59;;;;;;;0.30;0.30;;;11.60;99.90;;;;;;4986899;28;20109;-76
2023/08/28 03:28:25;;;;;;;0.32;0.30;;;11.60;99.90;;;;;;4965850;28;20501;-75
2023/08/28 03:30:50;;;;;;;0.30;0.30;;;11.60;99.90;;;;;;4970672;28;20078;-76
2023/08/28 03:33:16;;;;;;;0.85;0.65;;;11.60;99.90;;;;;;4972976;28;20113;-75
2023/08/28 03:35:43;;;;;;;0.40;0.40;;;11.50;99.90;;;;;;4976666;28;20046;-75
2023/08/28 03:38:09;;;;;;;0.43;0.43;;;11.50;99.90;;;;;;4984783;28;20121;-76
2023/08/28 03:40:37;;;;;;;0.40;0.40;;;11.50;99.90;;;;;;4966379;28;20113;-75
2023/08/28 03:43:03;;;;;;;0.98;0.98;;;11.50;99.90;;;;;;4970036;28;20042;-75
2023/08/28 03:45:29;;;;;;;0.40;0.40;;;11.40;99.90;;;;;;4987061;28;20073;-76
2023/08/28 03:47:55;;;;;;;0.60;0.60;;;11.40;99.90;;;;;;4987337;28;20488;-76
2023/08/28 03:50:20;;;;;;;0.30;0.30;;;11.40;99.90;;;;;;4965083;28;20042;-75
2023/08/28 03:52:46;;;;;;;0.40;0.40;;;11.30;99.90;;;;;;4980740;28;20586;-75
2023/08/28 03:55:12;;;;;;;0.30;0.30;;;11.30;99.90;;;;;;4981345;28;20046;-76
2023/08/28 03:57:38;;;;;;;0.80;0.45;;;11.20;99.90;;;;;;4960759;28;20125;-76
2023/08/28 04:00:12;;;;;;;0.45;0.45;;;11.20;99.90;;;;;;4986279;28;20058;-76
2023/08/28 04:02:39;;;;;;;0.30;0.30;;;11.20;99.90;;;;;;4971273;28;20132;-76
2023/08/28 04:05:06;;;;;;;0.25;0.25;;;11.10;99.90;;;;;;4968136;28;20057;-76
2023/08/28 04:07:32;;;;;;;0.40;0.40;;;11.10;99.90;;;;;;4960261;28;20053;-76
2023/08/28 04:10:01;;;;;;;0.60;0.60;;;11.10;99.90;;;;;;4970419;28;20049;-76
2023/08/28 04:12:27;;;;;;;0.38;0.38;;;11.00;99.90;;;;;;4970640;28;20046;-76
2023/08/28 04:14:52;;;;;;;0.30;0.30;;;11.00;99.90;;;;;;4979973;28;20264;-76
2023/08/28 04:17:18;;;;;;;0.22;0.22;;;11.00;99.90;;;;;;4974484;28;20054;-76
2023/08/28 04:19:43;;;;;;;0.57;0.57;;;11.00;99.90;;;;;;4972582;28;20467;-76
2023/08/28 04:22:09;;;;;;;0.40;0.40;;;11.00;99.90;;;;;;4970046;28;20043;-76
2023/08/28 04:24:36;;;;;;;0.50;0.50;;;10.90;99.90;;;;;;4983436;28;20054;-76
2023/08/28 04:27:01;;;;;;;0.40;0.40;;;10.90;99.90;;;;;;4962662;28;20553;-76
2023/08/28 04:29:27;;;;;;;0.30;0.30;;;10.90;99.90;;;;;;4966947;28;20050;-76
2023/08/28 04:31:52;;;;;;;0.70;0.70;;;10.90;99.90;;;;;;4986950;28;20477;-76
2023/08/28 04:34:18;;;;;;;0.68;0.68;;;10.90;99.90;;;;;;4967198;28;20657;-76
2023/08/28 04:36:44;;;;;;;0.50;0.50;;;10.90;99.90;;;;;;4969163;28;20105;-76
2023/08/28 04:39:09;;;;;;;0.30;0.30;;;10.90;99.90;;;;;;4967137;28;20618;-76
2023/08/28 04:41:35;;;;;;;0.70;0.70;;;10.90;99.90;;;;;;4970247;28;20050;-76
2023/08/28 04:44:01;;;;;;;0.65;0.65;;;10.90;99.90;;;;;;4986522;28;20046;-76
2023/08/28 04:46:28;;;;;;;0.35;0.35;;;10.90;99.90;;;;;;4970250;28;20038;-76
2023/08/28 04:48:54;;;;;;;0.50;0.50;;;10.80;99.90;;;;;;4972855;28;20562;-76
2023/08/28 04:51:20;;;;;;;0.20;0.20;;;10.80;99.90;;;;;;4972120;28;20043;-76
2023/08/28 04:53:45;;;;;;;0.30;0.30;;;10.90;99.90;;;;;;4960705;28;20129;-76
2023/08/28 04:56:11;;;;;;;0.40;0.40;;;10.90;99.90;;;;;;4984658;28;20165;-76
2023/08/28 04:58:37;;;;;;;0.30;0.30;;;10.90;99.90;;;;;;4983834;28;20061;-76
2023/08/28 05:01:03;;;;;;;0.30;0.30;;;10.90;99.90;;;;;;4963852;28;20122;-79
2023/08/28 05:03:29;;;;;;;0.30;0.30;;;11.00;99.90;;;;;;4969200;28;20130;-76
2023/08/28 05:05:54;;;;;;;0.32;0.32;;;11.00;99.90;;;;;;4985071;28;20061;-76
2023/08/28 05:08:20;;;;;;;0.40;0.40;;;11.10;99.90;;;;;;4971358;28;20046;-76
2023/08/28 05:10:46;;;;;;;0.50;0.50;;;11.10;99.90;;;;;;4971272;28;20434;-76
2023/08/28 05:13:12;;;;;;;0.38;0.38;;;11.20;99.90;;;;;;4974731;28;20047;-76
2023/08/28 05:15:37;;;;;;;0.38;0.38;;;11.30;99.90;;;;;;4964760;28;20054;-76
2023/08/28 05:18:03;;;;;;;0.40;0.40;;;11.30;99.90;;;;;;4963677;28;20042;-76
2023/08/28 05:20:29;;;;;;;0.28;0.28;;;11.40;99.90;;;;;;4979869;28;20050;-76
2023/08/28 05:22:55;;;;;;;0.20;0.20;;;11.50;99.90;;;;;;4986727;28;20046;-76
2023/08/28 05:25:21;;;;;;;0.50;0.50;;;11.60;99.90;;;;;;4984369;28;20538;-76
2023/08/28 05:27:46;;;;;;;0.50;0.50;;;11.70;99.90;;;;;;4955868;28;20054;-76
2023/08/28 05:30:12;;;;;;;0.88;0.88;;;11.80;99.90;;;;;;4966230;28;20047;-76
2023/08/28 05:32:38;;;;;;;0.60;0.60;;;11.90;99.90;;;;;;4971033;28;20092;-76
2023/08/28 05:35:05;;;;;;;0.55;0.55;;;11.90;99.90;;;;;;4979413;28;20050;-76
2023/08/28 05:37:31;;;;;;;0.73;0.73;;;12.00;99.90;;;;;;4986301;28;20077;-76
2023/08/28 05:39:57;;;;;;;0.30;0.30;;;12.10;99.90;;;;;;4971104;28;20092;-76
2023/08/28 05:42:23;;;;;;;0.65;0.65;;;12.20;99.90;;;;;;4971559;28;20064;-76
2023/08/28 05:44:48;;;;;;;0.45;0.45;;;12.20;99.90;;;;;;4968089;28;20126;-76
2023/08/28 05:47:14;;;;;;;0.63;0.63;;;12.20;99.90;;;;;;4966742;28;20054;-76
2023/08/28 05:49:40;;;;;;;0.32;0.32;;;12.20;99.90;;;;;;4969850;28;20148;-77
2023/08/28 05:52:06;;;;;;;0.73;0.73;;;12.20;99.90;;;;;;4963763;28;20046;-76
2023/08/28 05:54:31;;;;;;;0.85;0.77;;;12.20;99.90;;;;;;4965746;28;20049;-76
2023/08/28 05:56:57;;;;;;;0.30;0.30;;;12.20;99.90;;;;;;4988982;28;20076;-76
2023/08/28 05:59:23;;;;;;;0.40;0.40;;;12.30;99.90;;;;;;4981493;28;20586;-76
2023/08/28 06:01:48;;;;;;;0.50;0.50;;;12.30;99.90;;;;;;4999616;28;20499;-76
2023/08/28 06:04:14;;;;;;;0.55;0.55;;;12.30;99.90;;;;;;4958117;28;20186;-76
2023/08/28 06:06:40;;;;;;;0.50;0.50;;;12.30;99.90;;;;;;4983646;28;20045;-77
2023/08/28 06:09:06;;;;;;;0.93;0.93;;;12.30;99.90;;;;;;4999130;28;20445;-77
2023/08/28 06:11:32;;;;;;;1.05;1.05;;;12.40;99.90;;;;;;4987705;28;20576;-77
2023/08/28 06:13:58;;;;;;;0.40;0.40;;;12.30;99.90;;;;;;5002564;28;21423;-76
2023/08/28 06:16:24;;;;;;;0.30;0.30;;;12.40;99.90;;;;;;4986645;28;20050;-76
2023/08/28 06:18:50;;;;;;;0.40;0.40;;;12.40;99.90;;;;;;4985874;28;20465;-76
2023/08/28 06:21:15;;;;;;;0.40;0.40;;;12.40;99.90;;;;;;5001310;28;20046;-76
2023/08/28 06:23:41;;;;;;;1.45;1.10;;;12.50;99.90;;;;;;4999407;28;20368;-76
2023/08/28 06:26:07;;;;;;;0.50;0.50;;;12.50;99.90;;;;;;4978952;28;20569;-76
2023/08/28 06:28:34;;;;;;;0.30;0.30;;;12.50;99.90;;;;;;5005998;28;20391;-76
2023/08/28 06:31:01;;;;;;;0.50;0.50;;;12.60;99.90;;;;;;4989945;28;20128;-76
2023/08/28 06:33:27;;;;;;;0.50;0.50;;;12.60;99.90;;;;;;4984940;28;20050;-75
2023/08/28 06:35:53;;;;;;;0.30;0.30;;;12.60;99.90;;;;;;4982416;28;20057;-75
2023/08/28 06:38:19;;;;;;;2.92;0.55;;;12.70;99.90;;;;;;4989963;28;20053;-75
2023/08/28 06:40:51;;;;;;;0.88;0.88;;;12.80;99.90;;;;;;4982801;28;20046;-75
2023/08/28 06:43:18;;;;;;;0.38;0.38;;;12.80;99.90;;;;;;4985980;28;20464;-75
2023/08/28 06:45:47;;;;;;;0.35;0.35;;;12.90;99.90;;;;;;4984518;28;20061;-75
2023/08/28 06:48:13;;;;;;;0.60;0.60;;;13.00;99.90;;;;;;5004317;28;21284;-75
2023/08/28 06:50:38;;;;;;;0.43;0.43;;;13.10;99.90;;;;;;4973454;28;20062;-76
2023/08/28 06:53:04;;;;;;;0.35;0.35;;;13.20;99.90;;;;;;4971105;28;20157;-75
2023/08/28 06:55:32;;;;;;;0.95;0.95;;;13.30;99.90;;;;;;4980514;28;20403;-75
2023/08/28 06:57:58;;;;;;;0.38;0.38;;;13.50;99.90;;;;;;4988675;28;20108;-75
2023/08/28 07:00:24;;;;;;;0.47;0.47;;;13.70;99.90;;;;;;4989593;28;20089;-75
2023/08/28 07:02:50;;;;;;;1.00;0.98;;;13.80;99.90;;;;;;4979988;28;20502;-75
2023/08/28 07:05:16;;;;;;;0.55;0.55;;;14.00;99.90;;;;;;4985908;28;20046;-75
2023/08/28 07:07:42;;;;;;;0.45;0.45;;;14.30;99.90;;;;;;4981047;28;20053;-76
2023/08/28 07:10:08;;;;;;;0.40;0.40;;;14.50;99.90;;;;;;4986047;28;20403;-76
2023/08/28 07:12:33;;;;;;;0.70;0.70;;;14.70;99.90;;;;;;4988575;28;20068;-75
2023/08/28 07:15:25;;;;;;;0.40;0.40;;;15.00;99.90;;;;;;4982415;28;20041;-76
2023/08/28 07:17:51;;;;;;;1.00;1.00;;;15.30;99.90;;;;;;4992949;28;20526;-75
2023/08/28 07:20:16;;;;;;;0.60;0.60;;;15.40;99.90;;;;;;4983564;28;20088;-75
2023/08/28 07:22:42;;;;;;;0.30;0.30;;;15.60;99.90;;;;;;5001825;28;20050;-75
2023/08/28 07:25:08;;;;;;;0.50;0.50;;;15.90;99.90;;;;;;4985957;28;20546;-75
2023/08/28 07:27:34;;;;;;;0.32;0.32;;;16.10;99.90;;;;;;4973869;28;20202;-75
2023/08/28 07:30:04;;;;;;;0.65;0.65;;;16.30;99.90;;;;;;4971812;28;20054;-75
2023/08/28 07:32:31;;;;;;;0.50;0.50;;;16.60;99.90;;;;;;4975036;28;20545;-75
2023/08/28 07:34:59;;;;;;;0.43;0.43;;;16.80;99.90;;;;;;4994486;28;20547;-76
2023/08/28 07:37:33;;;;;;;0.43;0.43;;;17.00;99.90;;;;;;5003155;28;20435;-76
2023/08/28 07:39:58;;;;;;;0.40;0.40;;;17.20;99.90;;;;;;5008011;28;20468;-77
2023/08/28 07:42:25;;;;;;;0.30;0.30;;;17.40;99.90;;;;;;4992929;28;20053;-76
2023/08/28 07:44:50;;;;;;;0.20;0.20;;;17.50;99.90;;;;;;5011477;28;20416;-72
2023/08/28 07:47:17;;;;;;;0.20;0.20;;;17.70;99.90;;;;;;4989747;28;20433;-72
2023/08/28 07:49:43;;;;;;;0.30;0.30;;;17.90;99.90;;;;;;5009167;28;20487;-72
2023/08/28 07:52:08;;;;;;;0.60;0.60;;;18.10;99.90;;;;;;4982740;28;20073;-73
2023/08/28 07:54:34;;;;;;;0.50;0.50;;;18.20;99.90;;;;;;4973939;28;20061;-73
2023/08/28 07:57:00;;;;;;;0.40;0.40;;;18.40;99.90;;;;;;4992426;28;20415;-73
2023/08/28 07:59:26;;;;;;;0.30;0.30;;;18.60;99.90;;;;;;5010119;28;20148;-73
2023/08/28 08:01:51;;;;;;;0.40;0.40;;;18.80;99.90;;;;;;5000796;28;20046;-72
2023/08/28 08:04:17;;;;;;;0.30;0.30;;;19.00;99.90;;;;;;4993306;28;20128;-73
2023/08/28 08:06:42;;;;;;;0.30;0.30;;;19.20;99.90;;;;;;5009062;28;20506;-73
2023/08/28 08:09:09;;;;;;;0.30;0.30;;;19.30;99.90;;;;;;5005207;28;20426;-72
2023/08/28 08:11:35;;;;;;;0.25;0.25;;;19.50;99.90;;;;;;5004621;28;20038;-73
2023/08/28 08:14:00;;;;;;;0.47;0.47;;;19.70;99.90;;;;;;4985353;28;20037;-72
2023/08/28 08:16:26;;;;;;;0.32;0.32;;;19.80;99.90;;;;;;4976448;28;20144;-72
2023/08/28 08:18:52;;;;;;;0.40;0.40;;;19.90;99.90;;;;;;4987714;28;20091;-72
2023/08/28 08:21:18;;;;;;;0.30;0.30;;;20.00;99.90;;;;;;5004483;28;20049;-72
2023/08/28 08:23:43;;;;;;;0.30;0.30;;;20.10;99.90;;;;;;5003054;28;20521;-72
2023/08/28 08:26:09;;;;;;;0.38;0.38;;;20.20;99.90;;;;;;4985147;28;20034;-72
2023/08/28 08:28:35;;;;;;;0.30;0.30;;;20.40;99.90;;;;;;5008128;28;20054;-72
2023/08/28 08:31:00;;;;;;;0.40;0.40;;;20.50;99.90;;;;;;5003364;28;20042;-72
2023/08/28 08:33:26;;;;;;;0.38;0.38;;;20.70;99.90;;;;;;4985109;28;20119;-72
2023/08/28 08:35:52;;;;;;;0.30;0.30;;;20.80;99.90;;;;;;5008955;28;20049;-72
2023/08/28 08:38:17;;;;;;;0.30;0.30;;;21.00;99.90;;;;;;5000763;28;20133;-72
2023/08/28 08:40:43;;;;;;;0.30;0.30;;;21.10;99.90;;;;;;5005426;28;20073;-71
2023/08/28 08:43:09;;;;;;;0.43;0.43;;;21.10;99.90;;;;;;5002245;28;20499;-72
2023/08/28 08:45:39;;;;;;;0.30;0.30;;;21.20;99.90;;;;;;4985449;28;20101;-72
2023/08/28 08:48:08;;;;;;;0.40;0.40;;;21.40;99.90;;;;;;5005607;28;20050;-72
2023/08/28 08:50:36;;;;;;;0.30;0.30;;;21.50;99.90;;;;;;4975733;28;20478;-72
2023/08/28 08:53:06;;;;;;;0.30;0.30;;;21.70;99.90;;;;;;5003072;28;20085;-72
2023/08/28 08:55:42;;;;;;;0.30;0.30;;;21.80;99.90;;;;;;4999296;28;20061;-72
2023/08/28 08:58:15;;;;;;;0.30;0.30;;;21.90;99.90;;;;;;5006654;28;20113;-72
2023/08/28 09:00:43;;;;;;;0.30;0.30;;;21.90;99.90;;;;;;4997921;28;20058;-72
2023/08/28 09:03:09;;;;;;;0.30;0.30;;;21.80;99.90;;;;;;5001831;28;20567;-72
2023/08/28 09:05:36;;;;;;;0.30;0.30;;;21.90;99.90;;;;;;5003780;28;20042;-76
2023/08/28 09:08:05;;;;;;;0.30;0.30;;;22.00;99.90;;;;;;4990532;28;20471;-77
2023/08/28 09:10:32;;;;;;;0.30;0.30;;;22.00;99.90;;;;;;5003828;28;20052;-77
2023/08/28 09:12:57;;;;;;;0.20;0.20;;;22.10;99.90;;;;;;4986473;28;20054;-77
2023/08/28 09:15:24;;;;;;;0.20;0.20;;;22.00;99.90;;;;;;4985336;28;20053;-77
2023/08/28 09:17:51;;;;;;;0.43;0.43;;;21.90;99.90;;;;;;4981141;28;20057;-73
2023/08/28 09:20:18;;;;;;;0.30;0.30;;;21.80;99.90;;;;;;5000702;28;20206;-74
2023/08/28 09:22:51;;;;;;;0.25;0.25;;;21.60;99.90;;;;;;4986791;28;20515;-73
2023/08/28 09:25:18;;;;;;;0.35;0.35;;;21.60;99.90;;;;;;4999793;28;20058;-73
2023/08/28 09:27:45;;;;;;;0.40;0.40;;;21.60;99.90;;;;;;5006569;28;20128;-73
2023/08/28 09:30:25;;;;;;;0.43;0.43;;;21.70;99.90;;;;;;4999908;28;20160;-73
2023/08/28 09:32:51;;;;;;;0.20;0.20;;;21.80;99.90;;;;;;4983178;28;20054;-73
2023/08/28 09:35:20;;;;;;;0.80;0.57;;;22.00;99.90;;;;;;4988367;28;20085;-73
2023/08/28 09:37:58;;;;;;;0.30;0.30;;;22.10;99.90;;;;;;4984504;28;20349;-73
2023/08/28 09:40:32;;;;;;;0.30;0.30;;;22.30;99.90;;;;;;4967667;28;20052;-73
2023/08/28 09:42:58;;;;;;;0.40;0.40;;;22.40;99.90;;;;;;5009103;28;20583;-73
2023/08/28 09:45:32;;;;;;;0.30;0.30;;;22.50;99.90;;;;;;4990649;28;21211;-74
2023/08/28 09:47:57;;;;;;;0.30;0.30;;;22.70;99.90;;;;;;4989010;28;20062;-74
2023/08/28 09:50:27;;;;;;;0.25;0.25;;;22.80;99.90;;;;;;4988789;28;20052;-74
2023/08/28 09:52:52;;;;;;;0.35;0.35;;;22.90;99.90;;;;;;4990792;28;20053;-73
2023/08/28 09:55:18;;;;;;;0.25;0.25;;;23.00;99.90;;;;;;5006720;28;20049;-74
2023/08/28 09:57:44;;;;;;;0.30;0.30;;;23.20;99.90;;;;;;4980741;28;20112;-73
2023/08/28 10:00:12;;;;;;;0.30;0.30;;;23.50;99.90;;;;;;5006770;28;20049;-74
2023/08/28 10:02:38;;;;;;;0.25;0.25;;;23.50;99.90;;;;;;4993854;28;20141;-74
2023/08/28 10:05:07;;;;;;;0.40;0.40;;;23.60;99.90;;;;;;4995282;28;20156;-73
2023/08/28 10:07:33;;;;;;;0.55;0.20;;;23.80;99.90;;;;;;4985463;28;20411;-73
2023/08/28 10:10:01;;;;;;;0.30;0.30;;;23.90;99.90;;;;;;4994040;28;20085;-73
2023/08/28 10:12:28;;;;;;;0.20;0.20;;;23.90;99.90;;;;;;4984361;28;20732;-73
2023/08/28 10:14:55;;;;;;;0.20;0.20;;;24.10;99.90;;;;;;4987305;28;21175;-73
2023/08/28 10:17:23;;;;;;;0.30;0.30;;;24.20;99.90;;;;;;4989862;28;20060;-73
2023/08/28 10:20:00;;;;;;;0.52;0.52;;;24.40;99.90;;;;;;4989269;28;20053;-74
2023/08/28 10:22:28;;;;;;;0.30;0.30;;;24.60;99.90;;;;;;5001154;28;20127;-74
2023/08/28 10:24:56;;;;;;;0.20;0.20;;;24.80;99.90;;;;;;4979337;28;20190;-74
2023/08/28 10:27:23;;;;;;;0.30;0.30;;;24.80;99.90;;;;;;5005580;28;20038;-74
2023/08/28 10:29:49;;;;;;;0.20;0.20;;;25.00;99.90;;;;;;4978933;28;20065;-73
2023/08/28 10:32:15;;;;;;;0.30;0.30;;;24.90;99.90;;;;;;5005749;28;20128;-74
2023/08/28 10:34:44;;;;;;;0.30;0.30;;;24.80;99.90;;;;;;5007952;28;20519;-73
2023/08/28 10:37:11;;;;;;;0.30;0.30;;;24.80;99.90;;;;;;4994946;28;20045;-74
2023/08/28 10:39:41;;;;;;;0.20;0.20;;;24.70;99.90;;;;;;4985635;28;20132;-74
2023/08/28 10:42:15;;;;;;;0.30;0.30;;;24.60;99.90;;;;;;4986272;28;20054;-73
2023/08/28 10:44:42;;;;;;;0.30;0.30;;;24.60;99.90;;;;;;4988358;28;20050;-73
2023/08/28 10:47:08;;;;;;;0.30;0.30;;;24.80;99.90;;;;;;4999084;28;20049;-72
2023/08/28 10:49:34;;;;;;;0.30;0.30;;;24.80;99.90;;;;;;4989901;28;20104;-73
2023/08/28 10:52:06;;;;;;;0.30;0.30;;;24.90;99.90;;;;;;4987162;28;20051;-73
2023/08/28 10:54:39;;;;;;;0.30;0.30;;;25.00;99.90;;;;;;4985010;28;20054;-73
2023/08/28 10:57:10;;;;;;;0.40;0.40;;;25.00;99.90;;;;;;5001538;28;20178;-73
2023/08/28 10:59:43;;;;;;;0.30;0.30;;;25.20;99.90;;;;;;5004733;28;20057;-73
2023/08/28 11:02:10;;;;;;;0.30;0.30;;;25.20;99.90;;;;;;4980466;28;20375;-73
2023/08/28 11:04:37;;;;;;;0.20;0.20;;;25.10;99.90;;;;;;4981737;28;20042;-73
2023/08/28 11:07:03;;;;;;;;;;;25.00;99.90;;;;;;5004195;28;20058;-73
2023/08/28 11:09:29;;;;;;;0.32;0.32;;;25.00;99.90;;;;;;4987388;28;19933;-73
2023/08/28 11:11:57;;;;;;;0.20;0.20;;;25.00;99.90;;;;;;4993125;28;20056;-73
2023/08/28 11:14:34;;;;;;;0.30;0.30;;;25.00;99.90;;;;;;4983689;28;20137;-72
2023/08/28 11:17:15;;;;;;;0.30;0.30;;;24.90;99.90;;;;;;5006184;28;20053;-73
2023/08/28 11:22:39;;;;;;;0.40;0.40;;;24.70;99.90;;;;;;4987505;28;20060;-73
2023/08/28 11:25:13;;;;;;;0.30;0.30;;;24.60;99.90;;;;;;4996998;28;20049;-73
2023/08/28 11:27:56;;;;;;;0.30;0.30;;;24.60;99.90;;;;;;4986276;28;20491;-73
2023/08/28 11:30:22;;;;;;;0.30;0.30;;;24.60;99.90;;;;;;4984399;28;20571;-72
2023/08/28 11:32:53;;;;;;;0.30;0.30;;;24.70;99.90;;;;;;5003867;28;20046;-73
2023/08/28 11:35:20;;;;;;;0.40;0.40;;;24.70;99.90;;;;;;4978407;28;20510;-72
2023/08/28 11:37:48;;;;;;;0.30;0.30;;;24.80;99.90;;;;;;4985657;28;20038;-72
2023/08/28 11:40:19;;;;;;;0.30;0.30;;;24.70;99.90;;;;;;4987826;28;20461;-72
2023/08/28 11:42:46;;;;;;;0.30;0.30;;;24.60;99.90;;;;;;4987017;28;20054;-73
2023/08/28 11:45:21;;;;;;;0.30;0.30;;;24.50;99.90;;;;;;4987445;28;20137;-73
2023/08/28 11:47:47;;;;;;;0.63;0.63;;;24.40;99.90;;;;;;4975124;28;20065;-73
2023/08/28 11:50:13;;;;;;;0.30;0.30;;;24.30;99.90;;;;;;4989427;28;20046;-73
2023/08/28 11:52:39;;;;;;;0.30;0.30;;;24.10;99.90;;;;;;4985558;28;20231;-73
2023/08/28 11:55:06;;;;;;;0.80;0.43;;;24.00;99.90;;;;;;4996166;28;20052;-73
2023/08/28 11:57:33;;;;;;;0.30;0.30;;;23.90;99.90;;;;;;4984674;28;20093;-73
2023/08/28 12:00:00;;;;;;;0.32;0.32;;;23.80;99.90;;;;;;4981985;28;20047;-72
2023/08/28 12:02:26;;;;;;;;;;;23.70;99.90;;;;;;4984397;28;20057;-72
2023/08/28 12:04:52;;;;;;;0.35;0.35;;;23.60;99.90;;;;;;4984255;28;20333;-72
2023/08/28 12:07:20;;;;;;;0.20;0.20;;;23.60;99.90;;;;;;4971061;28;20038;-72
2023/08/28 12:09:48;;;;;;;0.30;0.30;;;23.50;99.90;;;;;;4982555;28;20081;-72
2023/08/28 12:12:17;;;;;;;0.38;0.38;;;23.40;99.90;;;;;;4977356;28;20042;-72
2023/08/28 12:14:43;;;;;;;0.30;0.30;;;23.50;99.90;;;;;;4987431;28;20058;-72
2023/08/28 12:17:17;;;;;;;0.30;0.30;;;23.70;99.90;;;;;;4986613;28;20065;-72
2023/08/28 12:19:43;;;;;;;0.50;0.50;;;23.90;99.90;;;;;;4982322;28;20430;-72
2023/08/28 12:22:10;;;;;;;0.30;0.30;;;23.90;99.90;;;;;;4979866;28;20509;-72
2023/08/28 12:24:44;;;;;;;0.40;0.40;;;24.00;99.90;;;;;;4999974;28;20050;-72
2023/08/28 12:27:14;;;;;;;0.60;0.60;;;24.00;99.90;;;;;;5007691;28;20495;-72
2023/08/28 12:29:41;;;;;;;0.30;0.30;;;24.10;99.90;;;;;;4996034;28;20386;-73
2023/08/28 12:32:16;;;;;;;0.32;0.32;;;24.20;99.90;;;;;;4990365;28;20560;-72
2023/08/28 12:34:42;;;;;;;0.30;0.30;;;24.20;99.90;;;;;;5005173;28;20050;-72
2023/08/28 12:37:11;;;;;;;0.38;0.38;;;24.10;99.90;;;;;;4988040;28;20468;-73
2023/08/28 12:39:45;;;;;;;0.20;0.20;;;24.10;99.90;;;;;;4982738;28;20517;-72
2023/08/28 12:42:12;;;;;;;0.30;0.30;;;24.10;99.90;;;;;;4989520;28;20038;-72
2023/08/28 12:44:41;;;;;;;0.20;0.20;;;24.20;99.90;;;;;;4995443;28;20064;-72
2023/08/28 12:47:08;;;;;;;0.30;0.30;;;24.20;99.90;;;;;;4990454;28;20038;-72
2023/08/28 12:49:34;;;;;;;0.30;0.30;;;24.20;99.90;;;;;;4983072;28;20054;-72
2023/08/28 12:51:59;;;;;;;0.35;0.35;;;24.30;99.90;;;;;;4986943;28;20050;-72